This is the latest recevied weather packets stored in our database for station/object DC1NF-6. If no packets are shown the sender has not sent any weather packets the latest 10 day(s).
| Time | Temp. | Humidity | Pressure | Rain* | Wind** | Luminosity | Snow |
|---|---|---|---|---|---|---|---|
| 1777815954 | 28.33° C | 28% | 1012.8 hPa | 0 mm | - | - | - |
| 1777815350 | 29.44° C | 27% | 1012.9 hPa | 0 mm | - | - | - |
| 1777814746 | 28.89° C | 27% | 1013 hPa | 0 mm | - | - | - |
| 1777814143 | 28.89° C | 28% | 1013.2 hPa | 0 mm | - | - | - |
| 1777813538 | 28.89° C | 27% | 1013.4 hPa | 0 mm | - | - | - |
| 1777812935 | 28.33° C | 29% | 1013.6 hPa | 0 mm | - | - | - |
| 1777812331 | 28.33° C | 29% | 1013.6 hPa | 0 mm | - | - | - |
| 1777811727 | 28.89° C | 29% | 1013.7 hPa | 0 mm | - | - | - |
| 1777811124 | 28.33° C | 28% | 1013.8 hPa | 0 mm | - | - | - |
| 1777810520 | 28.33° C | 28% | 1013.7 hPa | 0 mm | - | - | - |
| 1777809916 | 27.22° C | 33% | 1013.9 hPa | 0 mm | - | - | - |
| 1777809373 | 28.33° C | 28% | 1014 hPa | 0 mm | - | - | - |
| 1777808768 | 27.22° C | 29% | 1014.1 hPa | 0 mm | - | - | - |
| 1777808165 | 26.11° C | 31% | 1014.2 hPa | 0 mm | - | - | - |
| 1777807561 | 27.78° C | 29% | 1014.3 hPa | 0 mm | - | - | - |
| 1777806957 | 27.22° C | 30% | 1014.3 hPa | 0 mm | - | - | - |
| 1777806353 | 27.22° C | 32% | 1014.4 hPa | 0 mm | - | - | - |
| 1777805750 | 26.67° C | 31% | 1014.5 hPa | 0 mm | - | - | - |
| 1777805146 | 26.11° C | 31% | 1014.6 hPa | 0 mm | - | - | - |
| 1777804541 | 26.67° C | 33% | 1014.6 hPa | 0 mm | - | - | - |
| 1777803938 | 26.11° C | 34% | 1014.9 hPa | 0 mm | - | - | - |
| 1777803334 | 25.56° C | 35% | 1014.9 hPa | 0 mm | - | - | - |
| 1777802729 | 25° C | 34% | 1015.1 hPa | 0 mm | - | - | - |
| 1777802130 | 25° C | 36% | 1015.3 hPa | 0 mm | - | - | - |
| 1777801522 | 24.44° C | 36% | 1015.4 hPa | 0 mm | - | - | - |
* Rain latest hour (hover to see other rain measurements)
** Current wind speed in m/s (hover to see current wind gust speed)